Time;durP1;ratioP1;P1;durP2;ratioP2;P2;SDS_P1;SDS_P2;PMS_P1;PMS_P2;Temp;Humidity;BMP_temperature;BMP_pressure;BME280_temperature;BME280_humidity;BME280_pressure;Samples;Min_cycle;Max_cycle;Signal;HPM_P1;HPM_P2
2021/12/05 00:22:20;;;;;;;21.03;11.83;;;;;;;6.14;100.00;93856.59;5012195;28;20214;-60
2021/12/05 00:24:49;;;;;;;19.03;11.23;;;;;;;6.24;100.00;93848.16;5011983;28;20179;-62
2021/12/05 00:27:19;;;;;;;17.53;11.63;;;;;;;6.18;100.00;93853.69;5012208;28;20209;-64
2021/12/05 00:46:22;;;;;;;21.20;12.80;;;;;;;6.02;100.00;93838.19;5011675;28;20269;-61
2021/12/05 00:52:10;;;;;;;20.03;12.07;;;;;;;6.03;100.00;93837.28;5011770;28;20632;-63
2021/12/05 01:04:38;;;;;;;24.23;12.03;;;;;;;6.01;100.00;93826.50;5011333;28;20532;-60
2021/12/05 01:12:12;;;;;;;21.40;12.07;;;;;;;6.03;100.00;93826.38;5011139;28;20301;-63
2021/12/05 01:15:26;;;;;;;19.50;11.53;;;;;;;5.87;100.00;93816.72;5011494;28;20178;-60
2021/12/05 01:17:33;;;;;;;20.57;12.03;;;;;;;5.77;100.00;93803.22;5011338;22;20245;-61
2021/12/05 01:19:59;;;;;;;18.73;11.67;;;;;;;5.75;100.00;93805.88;5011165;28;20224;-62
2021/12/05 01:22:27;;;;;;;18.90;11.63;;;;;;;5.79;100.00;93799.66;5011591;28;20267;-60
2021/12/05 01:30:17;;;;;;;23.10;13.87;;;;;;;5.96;100.00;93805.13;5011280;28;20267;-62
2021/12/05 01:32:57;;;;;;;25.60;14.13;;;;;;;5.92;100.00;93776.78;5011570;28;20206;-62
2021/12/05 01:35:46;;;;;;;23.30;13.47;;;;;;;5.94;100.00;93783.31;5013908;28;20224;-63
2021/12/05 01:40:52;;;;;;;22.97;12.40;;;;;;;5.91;100.00;93780.25;5015146;28;20190;-62
2021/12/05 01:49:36;;;;;;;22.20;12.40;;;;;;;5.92;100.00;93781.84;5015233;28;20181;-59
2021/12/05 02:32:26;;;;;;;30.33;15.87;;;;;;;4.78;100.00;93822.78;5014163;28;20630;-61
2021/12/05 02:42:31;;;;;;;32.40;18.97;;;;;;;5.00;100.00;93809.34;5014222;28;20220;-62
2021/12/05 02:44:58;;;;;;;38.83;20.70;;;;;;;4.72;100.00;93797.25;5013586;28;20173;-64
2021/12/05 02:47:26;;;;;;;40.13;21.27;;;;;;;4.64;100.00;93804.59;5012818;28;20557;-63
2021/12/05 02:49:55;;;;;;;41.50;19.20;;;;;;;4.66;100.00;93796.00;5013543;28;20280;-61
2021/12/05 02:52:28;;;;;;;42.53;21.03;;;;;;;4.57;100.00;93798.41;5012405;28;20285;-60
2021/12/05 02:55:05;;;;;;;36.10;19.03;;;;;;;4.60;100.00;93788.94;5013736;28;20176;-63
2021/12/05 02:57:48;;;;;;;35.83;20.03;;;;;;;4.53;100.00;93787.78;5013262;28;20214;-59
2021/12/05 03:00:22;;;;;;;37.07;19.37;;;;;;;4.64;100.00;93780.22;5012204;28;20164;-61
2021/12/05 03:02:51;;;;;;;34.20;18.90;;;;;;;4.85;100.00;93792.88;5013832;28;20329;-60
2021/12/05 03:05:20;;;;;;;35.13;18.23;;;;;;;4.90;100.00;93785.78;5013515;28;20338;-59
2021/12/05 03:07:58;;;;;;;37.17;19.00;;;;;;;5.02;100.00;93793.19;5013636;28;20212;-60
2021/12/05 03:10:24;;;;;;;38.30;17.60;;;;;;;4.91;100.00;93785.66;5013221;28;20563;-62
2021/12/05 03:12:56;;;;;;;44.43;20.27;;;;;;;4.81;100.00;93787.28;5013509;28;20550;-61
2021/12/05 03:15:22;;;;;;;34.07;18.93;;;;;;;4.83;100.00;93789.66;5013057;28;20188;-61
2021/12/05 03:17:47;;;;;;;34.23;18.07;;;;;;;4.87;100.00;93789.31;5011745;28;20715;-61
2021/12/05 03:20:15;;;;;;;33.23;18.63;;;;;;;5.08;100.00;93796.94;5013084;28;20178;-63
2021/12/05 03:22:40;;;;;;;33.67;17.20;;;;;;;5.04;100.00;93791.38;5013396;28;20231;-61
2021/12/05 03:25:07;;;;;;;30.93;17.20;;;;;;;5.02;100.00;93785.66;5012959;28;20210;-60
2021/12/05 03:27:34;;;;;;;31.17;17.73;;;;;;;5.20;100.00;93787.63;5011754;28;20209;-60
2021/12/05 03:30:01;;;;;;;32.57;18.57;;;;;;;5.06;100.00;93781.97;5013030;28;20190;-61
2021/12/05 03:32:26;;;;;;;33.73;18.07;;;;;;;4.95;100.00;93787.03;5013207;28;20209;-61
2021/12/05 03:34:52;;;;;;;33.37;17.23;;;;;;;5.04;100.00;93786.31;5012775;28;20178;-62
2021/12/05 03:37:17;;;;;;;35.37;17.33;;;;;;;5.15;100.00;93793.06;5013018;28;20296;-60
2021/12/05 03:39:43;;;;;;;37.33;18.40;;;;;;;5.06;100.00;93794.56;5012932;28;20233;-63
2021/12/05 03:42:09;;;;;;;33.73;18.07;;;;;;;5.24;100.00;93789.00;5012868;28;20236;-61
2021/12/05 03:44:36;;;;;;;32.13;17.03;;;;;;;5.34;100.00;93775.56;5012585;28;20187;-65
2021/12/05 03:47:05;;;;;;;31.63;17.30;;;;;;;5.48;100.00;93777.00;5012827;28;20209;-58
2021/12/05 03:49:31;;;;;;;32.23;16.27;;;;;;;5.50;100.00;93770.91;5012494;28;20691;-63
2021/12/05 03:52:09;;;;;;;34.33;16.33;;;;;;;5.80;100.00;93777.75;5012692;28;20297;-60
2021/12/05 03:54:35;;;;;;;35.57;17.53;;;;;;;5.81;100.00;93779.38;5012542;28;20174;-60
2021/12/05 03:57:02;;;;;;;30.17;16.30;;;;;;;5.72;100.00;93770.81;5010651;28;20268;-60
2021/12/05 03:59:28;;;;;;;28.87;15.47;;;;;;;5.86;100.00;93785.66;5012409;28;20221;-60
2021/12/05 04:01:55;;;;;;;29.37;15.77;;;;;;;5.77;100.00;93783.88;5011073;28;20214;-66
2021/12/05 04:04:21;;;;;;;30.90;16.67;;;;;;;5.81;100.00;93787.75;5012137;28;20209;-62
2021/12/05 04:06:47;;;;;;;32.67;17.00;;;;;;;5.75;100.00;93784.91;5012383;28;20213;-60
2021/12/05 04:09:14;;;;;;;29.40;15.63;;;;;;;5.67;100.00;93784.72;5012365;28;20177;-64
2021/12/05 04:11:46;;;;;;;27.77;16.03;;;;;;;5.61;100.00;93792.75;5012344;28;20731;-63
2021/12/05 04:14:14;;;;;;;26.40;15.20;;;;;;;5.82;100.00;93786.00;5012089;28;20625;-61
2021/12/05 04:16:43;;;;;;;23.80;14.47;;;;;;;5.86;100.00;93789.91;5012142;28;20221;-63
2021/12/05 04:19:09;;;;;;;25.10;14.83;;;;;;;5.99;100.00;93792.25;5012007;28;20566;-61
2021/12/05 04:21:37;;;;;;;29.17;14.47;;;;;;;6.01;100.00;93795.44;5011946;28;20217;-61
2021/12/05 04:24:05;;;;;;;28.23;15.67;;;;;;;6.17;100.00;93786.50;5010827;28;20186;-64
2021/12/05 04:26:30;;;;;;;29.60;15.23;;;;;;;6.28;100.00;93778.84;5011990;28;20581;-60
2021/12/05 04:28:56;;;;;;;26.87;15.43;;;;;;;6.03;100.00;93784.31;5012002;28;20185;-60
2021/12/05 04:31:21;;;;;;;27.20;15.13;;;;;;;5.89;100.00;93787.97;5011951;28;20588;-64
2021/12/05 04:33:49;;;;;;;30.33;16.13;;;;;;;5.96;100.00;93807.63;5011695;28;20266;-60
2021/12/05 04:36:15;;;;;;;28.83;16.17;;;;;;;5.93;100.00;93803.63;5010300;28;20214;-59
2021/12/05 04:38:40;;;;;;;30.43;15.57;;;;;;;6.27;100.00;93806.75;5011585;28;20208;-60
2021/12/05 04:41:06;;;;;;;28.63;16.30;;;;;;;6.36;100.00;93811.06;5010419;28;20216;-60
2021/12/05 04:43:37;;;;;;;32.17;15.07;;;;;;;6.45;100.00;93810.28;5012006;28;20178;-60
2021/12/05 04:46:06;;;;;;;32.77;15.00;;;;;;;6.20;100.00;93801.38;5011558;28;20174;-63
2021/12/05 04:48:32;;;;;;;27.13;16.10;;;;;;;6.09;100.00;93798.94;5011862;28;20192;-62
2021/12/05 04:50:59;;;;;;;29.30;15.80;;;;;;;6.37;100.00;93815.97;5011441;28;20550;-61
2021/12/05 04:53:27;;;;;;;31.37;17.77;;;;;;;6.44;100.00;93814.56;5010074;28;20567;-61
2021/12/05 04:55:53;;;;;;;30.70;16.27;;;;;;;6.29;100.00;93805.69;5011692;28;20546;-62
2021/12/05 04:58:18;;;;;;;27.93;16.40;;;;;;;6.31;100.00;93808.09;5011690;28;20718;-60
2021/12/05 05:00:46;;;;;;;27.33;15.20;;;;;;;6.46;100.00;93825.31;5011471;28;20185;-61
2021/12/05 05:03:13;;;;;;;25.80;14.97;;;;;;;6.33;100.00;93819.66;5010128;28;20597;-59
2021/12/05 05:05:44;;;;;;;28.13;16.10;;;;;;;6.10;100.00;93830.81;5009798;28;20238;-62
2021/12/05 05:08:10;;;;;;;31.03;15.93;;;;;;;5.92;100.00;93834.81;5011788;28;20202;-61
2021/12/05 05:10:35;;;;;;;31.87;17.07;;;;;;;5.92;100.00;93830.56;5013092;28;20182;-62
2021/12/05 05:13:01;;;;;;;29.60;15.60;;;;;;;6.15;100.00;93841.34;5015885;28;20206;-64
2021/12/05 05:15:29;;;;;;;34.63;16.17;;;;;;;6.05;100.00;93837.16;5015524;28;20179;-61
2021/12/05 05:17:57;;;;;;;31.30;16.37;;;;;;;6.01;100.00;93839.13;5014036;28;20225;-62
2021/12/05 05:49:36;;;;;;;35.23;19.43;;;;;;;5.62;100.00;93840.53;5015067;28;20176;-59
2021/12/05 05:52:02;;;;;;;33.53;17.67;;;;;;;5.43;100.00;93829.50;5014951;28;20217;-60
2021/12/05 05:54:28;;;;;;;31.67;17.37;;;;;;;5.50;100.00;93833.13;5014662;28;20257;-63
2021/12/05 05:57:00;;;;;;;31.77;16.07;;;;;;;5.38;100.00;93821.47;5014784;28;20277;-59
2021/12/05 05:59:27;;;;;;;28.53;16.27;;;;;;;5.63;100.00;93821.16;5014594;28;20679;-63
2021/12/05 06:04:19;;;;;;;32.30;16.87;;;;;;;5.53;100.00;93807.69;5014549;28;20586;-60
2021/12/05 06:06:46;;;;;;;31.27;16.13;;;;;;;5.32;100.00;93821.97;5014602;28;20713;-59
2021/12/05 06:09:11;;;;;;;28.23;16.37;;;;;;;5.32;100.00;93824.47;5014789;28;20217;-60
2021/12/05 06:11:37;;;;;;;32.83;16.67;;;;;;;5.51;100.00;93825.47;5014344;28;20226;-61
2021/12/05 06:14:03;;;;;;;32.57;17.70;;;;;;;5.23;100.00;93827.72;5014294;28;20174;-61
2021/12/05 06:16:30;;;;;;;36.17;19.73;;;;;;;5.23;100.00;93835.28;5014155;28;20218;-64
2021/12/05 06:18:55;;;;;;;38.07;17.50;;;;;;;5.30;100.00;93841.44;5014163;28;20203;-62
2021/12/05 06:21:21;;;;;;;38.73;18.00;;;;;;;5.37;100.00;93842.56;5013796;28;20208;-59
2021/12/05 06:23:47;;;;;;;30.97;15.20;;;;;;;5.44;100.00;93836.13;5012820;28;20226;-60
2021/12/05 06:26:19;;;;;;;33.20;17.27;;;;;;;5.16;100.00;93854.28;5013794;28;20687;-63
2021/12/05 06:28:46;;;;;;;34.53;17.83;;;;;;;5.19;100.00;93851.53;5014129;28;20191;-60
2021/12/05 06:39:28;;;;;;;34.57;17.17;;;;;;;5.43;100.00;93863.06;5013792;28;20287;-62
2021/12/05 06:47:12;;;;;;;31.53;16.70;;;;;;;5.56;100.00;93885.56;5014598;28;20736;-61
2021/12/05 06:49:39;;;;;;;30.33;15.80;;;;;;;5.77;100.00;93896.53;5012718;28;20204;-61
2021/12/05 06:52:07;;;;;;;28.50;15.83;;;;;;;5.80;100.00;93907.16;5013445;28;20240;-63
2021/12/05 06:54:33;;;;;;;25.67;15.23;;;;;;;5.70;100.00;93902.94;5013520;28;20178;-61
2021/12/05 06:56:58;;;;;;;31.93;15.37;;;;;;;5.57;100.00;93919.94;5013645;28;20685;-61
2021/12/05 06:59:24;;;;;;;29.37;15.57;;;;;;;5.88;100.00;93921.72;5013242;28;20669;-59
2021/12/05 07:01:49;;;;;;;30.07;15.47;;;;;;;6.04;100.00;93924.63;5013652;28;20221;-61
2021/12/05 07:06:52;;;;;;;27.93;14.97;;;;;;;6.07;100.00;93926.94;5013288;28;20300;-63
2021/12/05 07:09:18;;;;;;;24.80;13.73;;;;;;;5.97;100.00;93921.00;5011886;28;20292;-62
2021/12/05 07:22:30;;;;;;;29.27;15.47;;;;;;;6.10;100.00;93901.44;4995251;28;20229;-62
2021/12/05 07:25:08;;;;;;;29.10;15.03;;;;;;;6.13;100.00;93911.31;5011731;28;20273;-60
2021/12/05 07:43:42;;;;;;;32.03;18.20;;;;;;;6.39;100.00;93901.63;5012801;28;20273;-62
2021/12/05 07:46:07;;;;;;;31.33;17.20;;;;;;;6.24;100.00;93895.31;5021183;22;20245;-62
2021/12/05 07:48:38;;;;;;;32.23;16.23;;;;;;;6.28;100.00;93899.97;5031166;28;20181;-64
2021/12/05 07:51:15;;;;;;;28.50;16.37;;;;;;;6.26;100.00;93896.78;5032362;28;20178;-65
2021/12/05 07:53:52;;;;;;;24.93;15.10;;;;;;;6.51;100.00;93882.97;5031287;28;20174;-61
2021/12/05 07:56:28;;;;;;;25.00;15.37;;;;;;;6.59;100.00;93878.91;5030576;28;20201;-60
2021/12/05 07:59:08;;;;;;;25.57;14.03;;;;;;;6.86;100.00;93885.16;5030815;28;20220;-62
2021/12/05 08:15:10;;;;;;;20.53;11.90;;;;;;;7.62;100.00;93910.66;5031524;28;20553;-61
2021/12/05 08:17:36;;;;;;;25.70;12.60;;;;;;;8.01;100.00;93911.50;5032385;28;20667;-63
2021/12/05 08:20:09;;;;;;;19.67;11.57;;;;;;;8.36;100.00;93925.22;5031682;28;20193;-62
2021/12/05 08:22:34;;;;;;;19.57;11.40;;;;;;;8.75;100.00;93933.59;5032119;28;20648;-61
2021/12/05 08:25:10;;;;;;;19.07;11.30;;;;;;;9.08;100.00;93944.97;5030480;28;20185;-61
2021/12/05 08:27:38;;;;;;;23.37;11.97;;;;;;;9.46;100.00;93971.91;5031566;28;20228;-60
2021/12/05 08:30:09;;;;;;;17.67;10.77;;;;;;;9.77;100.00;93966.44;5031766;28;20186;-60
2021/12/05 08:32:57;;;;;;;18.13;10.77;;;;;;;9.81;100.00;93979.63;5030143;28;20202;-64
2021/12/05 08:43:32;;;;;;;18.67;11.40;;;;;;;10.09;100.00;93956.63;5031579;28;20193;-62
2021/12/05 09:08:27;;;;;;;15.13;9.87;;;;;;;10.22;100.00;93986.75;5030006;28;20604;-60
2021/12/05 09:24:44;;;;;;;18.83;12.50;;;;;;;12.05;95.36;93948.31;5031488;28;20227;-63
2021/12/05 09:30:22;;;;;;;20.47;12.73;;;;;;;11.82;95.98;93926.94;5031407;28;20253;-61
2021/12/05 09:51:11;;;;;;;19.00;11.90;;;;;;;12.99;90.96;93993.63;5031127;28;20177;-63
2021/12/05 10:10:52;;;;;;;19.93;12.00;;;;;;;13.82;72.83;93974.50;5034718;28;20224;-63
2021/12/05 10:13:26;;;;;;;18.37;10.43;;;;;;;13.94;71.53;93983.38;5034362;28;20210;-61
2021/12/05 10:37:40;;;;;;;13.10;9.23;;;;;;;14.35;68.13;93990.88;4953636;29;20688;-63
2021/12/05 10:40:16;;;;;;;12.30;7.87;;;;;;;14.22;68.56;93989.63;4969872;28;20559;-62
2021/12/05 10:42:56;;;;;;;8.43;6.33;;;;;;;14.08;69.23;93963.97;4994930;28;20677;-63
2021/12/05 10:45:36;;;;;;;10.77;7.10;;;;;;;13.93;69.70;93938.38;4994383;28;20171;-61
2021/12/05 10:48:10;;;;;;;10.80;7.57;;;;;;;14.49;68.07;93964.56;4994718;28;20210;-63
2021/12/05 10:50:45;;;;;;;10.70;7.70;;;;;;;14.61;67.61;93960.66;4993055;28;20179;-61
2021/12/05 10:53:21;;;;;;;11.80;7.80;;;;;;;14.75;66.25;93968.38;4993383;28;20569;-64
2021/12/05 10:55:56;;;;;;;11.43;8.07;;;;;;;14.74;67.39;93937.84;5008415;28;20213;-64
2021/12/05 10:58:23;;;;;;;12.83;7.83;;;;;;;14.95;66.03;93959.25;4993015;28;20285;-64
2021/12/05 11:01:02;;;;;;;11.23;7.87;;;;;;;15.05;65.50;93975.16;4994379;28;20191;-63
2021/12/05 11:03:29;;;;;;;11.93;7.47;;;;;;;15.22;66.22;93941.75;4994126;28;20259;-63
2021/12/05 11:05:54;;;;;;;14.57;8.07;;;;;;;15.39;65.01;93971.34;4993643;28;20176;-63
2021/12/05 11:08:37;;;;;;;13.60;8.73;;;;;;;15.60;63.34;93989.41;4992777;28;20230;-63
2021/12/05 11:11:12;;;;;;;14.55;8.77;;;;;;;15.85;62.82;93988.16;4992542;28;20179;-61
2021/12/05 11:13:40;;;;;;;12.50;8.00;;;;;;;15.71;62.11;93994.09;4993965;28;20171;-62
2021/12/05 11:16:31;;;;;;;11.68;8.70;;;;;;;15.64;61.80;93988.06;4993850;28;20219;-61
2021/12/05 11:18:57;;;;;;;10.45;7.80;;;;;;;15.82;63.58;93932.13;4992469;28;20319;-64
2021/12/05 11:21:35;;;;;;;14.93;8.33;;;;;;;15.88;62.94;93957.03;4994083;28;20282;-62
2021/12/05 11:24:24;;;;;;;13.32;7.50;;;;;;;15.95;61.70;93968.19;4994078;28;20503;-64
2021/12/05 11:27:04;;;;;;;13.52;9.20;;;;;;;15.88;62.38;93932.22;4994047;28;20715;-63
2021/12/05 11:29:50;;;;;;;12.10;8.18;;;;;;;15.92;61.59;93938.56;4993635;28;20275;-63
2021/12/05 11:32:28;;;;;;;18.02;10.07;;;;;;;15.82;62.69;93917.53;4992424;28;20211;-64
2021/12/05 11:34:54;;;;;;;14.10;9.55;;;;;;;15.66;61.98;93927.19;4993404;28;20194;-64
2021/12/05 11:37:19;;;;;;;14.23;9.02;;;;;;;15.76;62.39;93902.88;4993900;28;20685;-61
2021/12/05 11:39:46;;;;;;;14.70;8.45;;;;;;;15.87;61.97;93901.63;5008322;28;20211;-61
2021/12/05 11:42:19;;;;;;;17.45;8.95;;;;;;;15.91;62.03;93893.41;5010694;23;20696;-62
2021/12/05 11:44:46;;;;;;;12.95;7.75;;;;;;;15.64;62.49;93888.94;5012764;28;20575;-62
2021/12/05 11:47:22;;;;;;;9.73;6.50;;;;;;;15.60;61.68;93894.59;5012732;28;20210;-61
2021/12/05 11:49:48;;;;;;;11.98;6.63;;;;;;;15.73;62.33;93872.50;5012703;28;20265;-61
2021/12/05 11:52:21;;;;;;;7.95;5.97;;;;;;;15.84;61.19;93907.91;5012804;28;20625;-64
2021/12/05 11:54:47;;;;;;;10.70;6.63;;;;;;;15.89;60.67;93908.19;5012699;28;20548;-64
2021/12/05 11:57:24;;;;;;;13.63;7.35;;;;;;;15.91;60.87;93895.19;5012877;28;20203;-62
2021/12/05 11:59:54;;;;;;;10.07;7.07;;;;;;;15.82;59.83;93907.28;5012743;28;20221;-63
2021/12/05 12:02:21;;;;;;;12.40;8.45;;;;;;;15.25;62.23;93842.31;5012839;28;20218;-64
2021/12/05 12:04:52;;;;;;;17.90;9.23;;;;;;;15.16;62.94;93817.78;5011026;28;20670;-62
2021/12/05 12:07:47;;;;;;;14.77;7.72;;;;;;;15.33;63.80;93814.03;5011514;28;20680;-60
2021/12/05 12:10:28;;;;;;;11.50;8.05;;;;;;;15.30;63.10;93832.34;5007769;28;20201;-63
2021/12/05 12:13:01;;;;;;;14.15;7.88;;;;;;;15.39;63.25;93815.13;5013185;28;20209;-64
2021/12/05 12:15:28;;;;;;;12.52;7.70;;;;;;;15.67;61.77;93851.94;5012662;28;20200;-61
2021/12/05 12:18:04;;;;;;;17.85;8.63;;;;;;;15.70;61.39;93857.47;5012295;28;20215;-61
2021/12/05 12:20:30;;;;;;;11.68;7.85;;;;;;;15.59;61.41;93844.34;5013027;28;20225;-62
2021/12/05 12:22:56;;;;;;;15.60;8.27;;;;;;;15.72;61.95;93840.16;5012535;28;20212;-61
2021/12/05 12:25:26;;;;;;;11.82;8.13;;;;;;;15.86;61.79;93851.34;5012436;28;20183;-63
2021/12/05 12:27:52;;;;;;;12.48;7.88;;;;;;;15.98;60.94;93860.13;5012465;28;20301;-64
2021/12/05 12:30:24;;;;;;;15.63;9.13;;;;;;;15.86;60.34;93862.38;5012204;28;20250;-61
2021/12/05 12:32:55;;;;;;;17.73;9.00;;;;;;;15.58;62.02;93827.38;5012863;28;20198;-62
2021/12/05 12:35:27;;;;;;;14.80;8.95;;;;;;;15.80;62.30;93809.28;5012271;28;20492;-61
2021/12/05 12:38:07;;;;;;;20.55;7.53;;;;;;;15.86;62.62;93800.88;5012257;28;20309;-64
2021/12/05 12:40:54;;;;;;;10.57;7.15;;;;;;;15.79;61.15;93835.91;5012183;28;20170;-61
2021/12/05 12:43:27;;;;;;;13.15;7.70;;;;;;;15.74;61.98;93816.91;5011450;28;20191;-60
2021/12/05 12:45:52;;;;;;;10.98;7.00;;;;;;;15.66;62.93;93793.94;5011936;28;20193;-65
2021/12/05 12:48:18;;;;;;;10.93;7.55;;;;;;;15.73;62.42;93810.19;5011873;28;20179;-67
2021/12/05 12:50:52;;;;;;;13.80;8.10;;;;;;;15.80;61.77;93816.19;5010715;28;20207;-63
2021/12/05 12:53:28;;;;;;;14.20;7.65;;;;;;;15.90;61.81;93803.84;5012633;28;20658;-61
2021/12/05 12:56:21;;;;;;;13.45;7.68;;;;;;;15.88;61.99;93796.34;5010367;28;20658;-62
2021/12/05 12:58:59;;;;;;;11.52;7.68;;;;;;;15.88;62.28;93782.75;5011904;28;20656;-64
2021/12/05 13:12:54;;;;;;;13.98;8.77;;;;;;;15.84;63.86;93761.81;4970566;28;20212;-64
2021/12/05 13:15:40;;;;;;;12.40;8.77;;;;;;;15.88;63.17;93765.59;4971206;28;20177;-63
2021/12/05 13:18:13;;;;;;;10.13;7.65;;;;;;;15.40;64.70;93721.94;4997681;28;20233;-63
2021/12/05 13:20:41;;;;;;;14.80;8.45;;;;;;;14.99;66.53;93673.84;5010291;28;20652;-63
2021/12/05 13:23:08;;;;;;;11.68;7.65;;;;;;;14.72;68.02;93655.81;5011089;28;20202;-64
2021/12/05 13:26:02;;;;;;;16.38;9.13;;;;;;;14.70;68.63;93640.66;5011426;28;20178;-63
2021/12/05 13:29:11;;;;;;;13.80;9.05;;;;;;;14.65;68.73;93631.91;5011345;28;20218;-61
2021/12/05 13:31:45;;;;;;;11.35;7.85;;;;;;;14.55;68.11;93649.28;5001404;28;20450;-64
2021/12/05 13:34:24;;;;;;;15.55;8.90;;;;;;;14.41;68.42;93638.13;5013782;28;20613;-61
2021/12/05 13:37:00;;;;;;;17.05;7.70;;;;;;;14.35;68.94;93630.38;5013591;28;20290;-61
2021/12/05 13:39:32;;;;;;;13.70;8.43;;;;;;;14.16;70.48;93600.97;5013668;28;20230;-63
2021/12/05 13:42:02;;;;;;;11.40;8.07;;;;;;;13.74;71.59;93598.25;5015212;28;20722;-61
2021/12/05 13:44:58;;;;;;;11.93;8.10;;;;;;;13.37;74.27;93542.91;5015120;28;20275;-64
2021/12/05 13:47:31;;;;;;;12.73;7.53;;;;;;;13.24;74.87;93551.16;5015138;28;20241;-63
2021/12/05 13:50:25;;;;;;;10.47;7.90;;;;;;;13.15;75.53;93564.94;5015326;28;20179;-62
2021/12/05 13:53:12;;;;;;;14.97;9.17;;;;;;;12.78;76.09;93556.44;5007555;28;20222;-63
2021/12/05 13:55:50;;;;;;;12.47;8.63;;;;;;;12.56;77.26;93565.66;5014573;28;20187;-62
2021/12/05 13:58:19;;;;;;;11.90;8.20;;;;;;;12.63;77.54;93572.47;5014984;28;20269;-64
2021/12/05 14:00:51;;;;;;;15.60;8.80;;;;;;;12.44;78.40;93556.81;5014754;28;20258;-64
2021/12/05 14:03:44;;;;;;;17.00;8.70;;;;;;;12.17;79.19;93555.50;5014686;28;20645;-63
2021/12/05 14:06:35;;;;;;;12.20;8.37;;;;;;;11.92;79.77;93555.78;5014451;28;20198;-63
2021/12/05 14:09:08;;;;;;;14.40;8.03;;;;;;;11.74;80.54;93554.22;5014553;28;20199;-61
2021/12/05 14:11:35;;;;;;;15.60;9.10;;;;;;;11.54;81.07;93553.00;5014754;28;20656;-63
2021/12/05 14:14:06;;;;;;;15.00;8.53;;;;;;;11.54;80.41;93563.16;5014591;28;20630;-61
2021/12/05 14:16:38;;;;;;;15.63;8.33;;;;;;;11.38;81.35;93547.94;5014557;28;20641;-60
2021/12/05 14:19:06;;;;;;;12.80;8.50;;;;;;;11.20;82.84;93539.69;5014316;28;20282;-60
2021/12/05 14:21:32;;;;;;;15.03;8.93;;;;;;;11.16;83.54;93535.88;5014223;28;20214;-62
2021/12/05 14:24:00;;;;;;;13.93;8.80;;;;;;;11.21;83.35;93530.31;5014595;28;20195;-63
2021/12/05 14:26:29;;;;;;;16.00;9.00;;;;;;;11.08;84.61;93535.88;5014473;28;20659;-61
2021/12/05 14:28:58;;;;;;;13.57;8.97;;;;;;;11.21;84.39;93551.44;5014628;28;20687;-62
2021/12/05 14:31:35;;;;;;;17.13;9.73;;;;;;;10.89;85.91;93536.19;5014010;28;20617;-63
2021/12/05 14:34:02;;;;;;;16.23;9.73;;;;;;;10.80;87.13;93537.16;5014242;28;20182;-63
2021/12/05 14:36:32;;;;;;;14.93;9.37;;;;;;;10.96;86.26;93558.31;5012637;28;20290;-61
2021/12/05 14:39:12;;;;;;;14.77;10.03;;;;;;;10.70;88.11;93534.00;5014249;28;20642;-62
2021/12/05 14:41:38;;;;;;;19.80;9.47;;;;;;;10.63;88.12;93538.91;5014186;28;20215;-64
2021/12/05 14:44:05;;;;;;;14.37;8.53;;;;;;;10.60;88.34;93543.50;5014052;28;20233;-61
2021/12/05 14:46:31;;;;;;;14.73;8.70;;;;;;;10.49;88.96;93536.97;5013982;28;20205;-60
2021/12/05 14:49:01;;;;;;;14.73;9.87;;;;;;;10.43;89.96;93535.06;5013892;28;20187;-61
2021/12/05 14:51:37;;;;;;;20.90;9.73;;;;;;;10.57;88.50;93546.34;5014247;28;20211;-66
2021/12/05 14:54:05;;;;;;;12.50;8.90;;;;;;;10.25;90.51;93531.84;5013989;28;20666;-61
2021/12/05 14:56:35;;;;;;;12.10;8.47;;;;;;;10.11;92.08;93540.06;5013995;28;20710;-62
2021/12/05 14:59:11;;;;;;;14.30;8.90;;;;;;;10.16;91.26;93572.63;5012461;28;20206;-63
2021/12/05 15:01:40;;;;;;;15.53;9.83;;;;;;;9.90;92.17;93562.47;5013871;28;20527;-64
2021/12/05 15:04:09;;;;;;;13.30;9.30;;;;;;;9.63;95.06;93552.53;5012231;28;20705;-62
2021/12/05 15:06:39;;;;;;;16.20;9.73;;;;;;;9.87;93.06;93578.84;5013825;28;20194;-63
2021/12/05 15:09:15;;;;;;;21.30;10.80;;;;;;;10.38;100.00;93580.47;5013721;28;20199;-62
2021/12/05 15:11:48;;;;;;;23.77;14.17;;;;;;;10.28;100.00;93592.47;5013925;28;20632;-62
2021/12/05 15:14:14;;;;;;;21.20;13.17;;;;;;;10.65;100.00;93581.94;5012137;28;20175;-60
2021/12/05 15:16:55;;;;;;;26.13;13.90;;;;;;;10.69;100.00;93623.88;5013723;28;20206;-63
2021/12/05 15:19:21;;;;;;;24.73;13.83;;;;;;;10.35;100.00;93620.59;5013514;28;20243;-61
2021/12/05 15:21:47;;;;;;;20.30;11.97;;;;;;;10.33;100.00;93665.69;5012003;28;20207;-61
2021/12/05 15:24:15;;;;;;;17.17;12.47;;;;;;;9.92;100.00;93611.34;5012117;28;20642;-63
2021/12/05 15:26:41;;;;;;;19.83;12.87;;;;;;;10.14;100.00;93606.56;5013077;28;20203;-63
2021/12/05 15:29:06;;;;;;;17.30;12.07;;;;;;;10.10;100.00;93658.59;5013241;28;20632;-62
2021/12/05 15:31:34;;;;;;;21.50;13.23;;;;;;;9.81;100.00;93626.84;5013191;28;20195;-62
2021/12/05 15:34:00;;;;;;;21.20;11.67;;;;;;;9.55;100.00;93621.00;5013375;28;20687;-63
2021/12/05 15:36:34;;;;;;;20.13;11.80;;;;;;;9.44;100.00;93629.63;5013450;28;20214;-60
2021/12/05 15:39:19;;;;;;;18.37;11.50;;;;;;;8.96;100.00;93581.91;5011331;28;20296;-62
2021/12/05 15:41:46;;;;;;;17.67;11.03;;;;;;;9.06;100.00;93602.09;4996522;28;20202;-62
2021/12/05 15:44:26;;;;;;;16.47;10.10;;;;;;;8.99;100.00;93596.81;5011788;28;20175;-61
2021/12/05 15:46:59;;;;;;;23.90;11.87;;;;;;;8.88;100.00;93586.91;5013093;28;20199;-63
2021/12/05 15:49:28;;;;;;;18.07;10.83;;;;;;;8.69;100.00;93593.84;5012804;28;20179;-61
2021/12/05 15:52:02;;;;;;;17.07;10.33;;;;;;;8.81;100.00;93623.09;5012792;28;20662;-61
2021/12/05 15:54:28;;;;;;;16.90;10.30;;;;;;;8.75;100.00;93619.41;5010694;28;20524;-64
2021/12/05 15:57:11;;;;;;;17.57;11.70;;;;;;;8.77;100.00;93624.31;5011406;28;20211;-63
2021/12/05 15:59:40;;;;;;;16.67;10.77;;;;;;;8.67;100.00;93621.06;5012789;28;20349;-61
2021/12/05 16:02:10;;;;;;;20.00;12.57;;;;;;;8.18;100.00;93594.44;5012781;28;20218;-59
2021/12/05 16:04:39;;;;;;;21.70;13.20;;;;;;;8.14;100.00;93610.84;5012667;28;20549;-63
2021/12/05 16:07:08;;;;;;;21.57;13.17;;;;;;;8.63;100.00;93645.09;5013013;28;20600;-61
2021/12/05 16:09:35;;;;;;;20.83;12.87;;;;;;;8.46;100.00;93637.31;5011109;28;20629;-60
2021/12/05 16:12:17;;;;;;;23.00;14.67;;;;;;;7.98;100.00;93626.63;5012620;28;20202;-60
2021/12/05 16:14:49;;;;;;;25.70;14.30;;;;;;;7.68;100.00;93633.63;5012419;28;20168;-61
2021/12/05 16:17:27;;;;;;;18.50;12.60;;;;;;;7.70;100.00;93630.03;5012752;28;20215;-60
2021/12/05 16:20:08;;;;;;;25.83;13.10;;;;;;;7.83;100.00;93630.56;5012336;28;20205;-63
2021/12/05 16:23:13;;;;;;;24.13;12.93;;;;;;;7.93;100.00;93645.69;5012751;28;20202;-64
2021/12/05 16:25:46;;;;;;;25.50;12.73;;;;;;;7.87;100.00;93648.78;5012333;28;20178;-60
2021/12/05 16:28:14;;;;;;;21.87;12.57;;;;;;;7.61;100.00;93635.94;5012659;28;20186;-62
2021/12/05 16:30:45;;;;;;;26.13;14.57;;;;;;;7.73;100.00;93641.63;5010681;28;20188;-60
2021/12/05 16:33:12;;;;;;;21.37;12.87;;;;;;;8.12;100.00;93666.66;5012493;28;20676;-59
2021/12/05 16:35:41;;;;;;;23.60;14.10;;;;;;;7.89;100.00;93651.97;5012154;28;20279;-60
2021/12/05 16:38:28;;;;;;;17.93;11.57;;;;;;;7.73;100.00;93644.97;5012228;28;20221;-61
2021/12/05 16:41:02;;;;;;;23.00;13.80;;;;;;;7.68;100.00;93639.50;5011844;28;20652;-61
2021/12/05 16:43:31;;;;;;;23.63;13.00;;;;;;;7.94;100.00;93655.66;5011705;28;20207;-61
2021/12/05 16:46:05;;;;;;;22.67;13.10;;;;;;;7.80;100.00;93640.94;5011618;28;20226;-61
2021/12/05 16:48:33;;;;;;;23.20;14.23;;;;;;;7.32;100.00;93636.00;5011830;28;20253;-62
2021/12/05 16:51:17;;;;;;;22.37;12.67;;;;;;;7.62;100.00;93647.63;5011597;28;20190;-60
2021/12/05 16:53:46;;;;;;;22.33;14.23;;;;;;;7.81;100.00;93621.50;5011606;28;20178;-61
2021/12/05 16:56:17;;;;;;;25.03;13.23;;;;;;;7.68;100.00;93636.97;5010035;28;20692;-61
2021/12/05 16:58:44;;;;;;;20.13;12.03;;;;;;;7.75;100.00;93643.09;5010378;28;20237;-60
2021/12/05 17:01:17;;;;;;;24.90;13.47;;;;;;;7.76;100.00;93656.53;5010134;28;20209;-61